sensor_id;sensor_type;location;lat;lon;timestamp;P1;durP1;ratioP1;P2;durP2;ratioP2
505;SDS011;551;48.524;9.056;2024-03-02T00:02:10;7.73;;;6.40;;
505;SDS011;551;48.524;9.056;2024-03-02T00:04:36;10.67;;;7.30;;
505;SDS011;551;48.524;9.056;2024-03-02T00:07:02;11.00;;;7.43;;
505;SDS011;551;48.524;9.056;2024-03-02T00:09:28;9.97;;;7.70;;
505;SDS011;551;48.524;9.056;2024-03-02T00:11:54;9.47;;;6.93;;
505;SDS011;551;48.524;9.056;2024-03-02T00:14:20;11.57;;;7.97;;
505;SDS011;551;48.524;9.056;2024-03-02T00:16:46;10.43;;;7.20;;
505;SDS011;551;48.524;9.056;2024-03-02T00:19:11;10.93;;;6.80;;
505;SDS011;551;48.524;9.056;2024-03-02T00:21:37;11.73;;;7.97;;
505;SDS011;551;48.524;9.056;2024-03-02T00:24:23;12.10;;;6.87;;
505;SDS011;551;48.524;9.056;2024-03-02T00:26:56;9.70;;;5.80;;
505;SDS011;551;48.524;9.056;2024-03-02T00:29:22;11.37;;;7.87;;
505;SDS011;551;48.524;9.056;2024-03-02T00:31:47;12.23;;;7.37;;
505;SDS011;551;48.524;9.056;2024-03-02T00:34:13;10.37;;;7.13;;
505;SDS011;551;48.524;9.056;2024-03-02T00:36:41;9.50;;;6.90;;
505;SDS011;551;48.524;9.056;2024-03-02T00:39:07;12.03;;;7.77;;
505;SDS011;551;48.524;9.056;2024-03-02T00:41:33;9.10;;;7.43;;
505;SDS011;551;48.524;9.056;2024-03-02T00:44:01;9.83;;;6.97;;
505;SDS011;551;48.524;9.056;2024-03-02T00:46:29;10.93;;;6.50;;
505;SDS011;551;48.524;9.056;2024-03-02T00:48:58;14.50;;;8.07;;
505;SDS011;551;48.524;9.056;2024-03-02T00:51:47;9.00;;;6.37;;
505;SDS011;551;48.524;9.056;2024-03-02T00:54:14;13.17;;;5.97;;
505;SDS011;551;48.524;9.056;2024-03-02T00:56:41;10.50;;;6.53;;
505;SDS011;551;48.524;9.056;2024-03-02T00:59:07;5.27;;;4.77;;
505;SDS011;551;48.524;9.056;2024-03-02T01:01:33;6.63;;;4.53;;
505;SDS011;551;48.524;9.056;2024-03-02T01:03:59;6.13;;;5.10;;
505;SDS011;551;48.524;9.056;2024-03-02T01:06:25;4.80;;;4.00;;
505;SDS011;551;48.524;9.056;2024-03-02T01:08:50;5.10;;;4.63;;
505;SDS011;551;48.524;9.056;2024-03-02T01:11:16;4.03;;;3.60;;
505;SDS011;551;48.524;9.056;2024-03-02T01:13:42;5.73;;;3.77;;
505;SDS011;551;48.524;9.056;2024-03-02T01:16:08;6.10;;;3.90;;
505;SDS011;551;48.524;9.056;2024-03-02T01:18:34;6.70;;;3.97;;
505;SDS011;551;48.524;9.056;2024-03-02T01:20:59;4.73;;;3.60;;
505;SDS011;551;48.524;9.056;2024-03-02T01:23:25;3.43;;;3.13;;
505;SDS011;551;48.524;9.056;2024-03-02T01:25:51;12.47;;;6.70;;
505;SDS011;551;48.524;9.056;2024-03-02T01:28:17;13.00;;;6.20;;
505;SDS011;551;48.524;9.056;2024-03-02T01:30:43;12.90;;;6.07;;
505;SDS011;551;48.524;9.056;2024-03-02T01:33:09;10.50;;;7.30;;
505;SDS011;551;48.524;9.056;2024-03-02T01:35:35;11.30;;;7.10;;
505;SDS011;551;48.524;9.056;2024-03-02T01:38:02;13.43;;;7.90;;
505;SDS011;551;48.524;9.056;2024-03-02T01:40:28;14.87;;;8.10;;
505;SDS011;551;48.524;9.056;2024-03-02T01:42:53;15.27;;;7.90;;
505;SDS011;551;48.524;9.056;2024-03-02T01:45:19;14.50;;;8.23;;
505;SDS011;551;48.524;9.056;2024-03-02T01:47:45;20.30;;;9.10;;
505;SDS011;551;48.524;9.056;2024-03-02T01:50:11;19.47;;;10.00;;
505;SDS011;551;48.524;9.056;2024-03-02T01:52:38;10.60;;;7.60;;
505;SDS011;551;48.524;9.056;2024-03-02T01:55:05;11.60;;;8.00;;
505;SDS011;551;48.524;9.056;2024-03-02T01:57:33;15.07;;;8.03;;
505;SDS011;551;48.524;9.056;2024-03-02T01:59:59;14.93;;;8.40;;
505;SDS011;551;48.524;9.056;2024-03-02T02:02:25;11.47;;;7.73;;
505;SDS011;551;48.524;9.056;2024-03-02T02:04:51;13.30;;;8.47;;
505;SDS011;551;48.524;9.056;2024-03-02T02:07:17;20.80;;;9.23;;
505;SDS011;551;48.524;9.056;2024-03-02T02:09:42;15.43;;;8.80;;
505;SDS011;551;48.524;9.056;2024-03-02T02:12:09;16.20;;;9.50;;
505;SDS011;551;48.524;9.056;2024-03-02T02:14:35;15.70;;;10.43;;
505;SDS011;551;48.524;9.056;2024-03-02T02:17:01;12.90;;;7.43;;
505;SDS011;551;48.524;9.056;2024-03-02T02:19:26;17.50;;;7.60;;
505;SDS011;551;48.524;9.056;2024-03-02T02:21:52;8.70;;;6.37;;
505;SDS011;551;48.524;9.056;2024-03-02T02:24:18;13.07;;;7.20;;
505;SDS011;551;48.524;9.056;2024-03-02T02:26:43;9.17;;;6.20;;
505;SDS011;551;48.524;9.056;2024-03-02T02:29:09;9.10;;;6.77;;
505;SDS011;551;48.524;9.056;2024-03-02T02:31:38;7.57;;;5.63;;
505;SDS011;551;48.524;9.056;2024-03-02T02:34:04;8.37;;;5.60;;
505;SDS011;551;48.524;9.056;2024-03-02T02:36:30;13.17;;;6.00;;
505;SDS011;551;48.524;9.056;2024-03-02T02:38:56;15.33;;;5.90;;
505;SDS011;551;48.524;9.056;2024-03-02T02:41:22;6.23;;;4.90;;
505;SDS011;551;48.524;9.056;2024-03-02T02:43:47;8.40;;;5.00;;
505;SDS011;551;48.524;9.056;2024-03-02T02:46:13;6.23;;;5.17;;
505;SDS011;551;48.524;9.056;2024-03-02T02:48:38;4.63;;;4.07;;
505;SDS011;551;48.524;9.056;2024-03-02T02:51:04;6.23;;;4.30;;
505;SDS011;551;48.524;9.056;2024-03-02T02:53:29;6.17;;;4.60;;
505;SDS011;551;48.524;9.056;2024-03-02T02:55:55;8.63;;;4.70;;
505;SDS011;551;48.524;9.056;2024-03-02T02:58:20;5.80;;;5.17;;
505;SDS011;551;48.524;9.056;2024-03-02T03:00:46;7.20;;;4.73;;
505;SDS011;551;48.524;9.056;2024-03-02T03:03:11;5.07;;;3.83;;
505;SDS011;551;48.524;9.056;2024-03-02T03:05:37;9.60;;;4.93;;
505;SDS011;551;48.524;9.056;2024-03-02T03:08:02;6.30;;;4.73;;
505;SDS011;551;48.524;9.056;2024-03-02T03:10:28;4.70;;;4.10;;
505;SDS011;551;48.524;9.056;2024-03-02T03:12:54;8.00;;;5.73;;
505;SDS011;551;48.524;9.056;2024-03-02T03:15:21;7.33;;;5.03;;
505;SDS011;551;48.524;9.056;2024-03-02T03:17:46;14.00;;;9.73;;
505;SDS011;551;48.524;9.056;2024-03-02T03:20:12;17.30;;;9.30;;
505;SDS011;551;48.524;9.056;2024-03-02T03:22:38;17.63;;;8.83;;
505;SDS011;551;48.524;9.056;2024-03-02T03:25:04;16.53;;;8.63;;
505;SDS011;551;48.524;9.056;2024-03-02T03:27:29;10.93;;;7.90;;
505;SDS011;551;48.524;9.056;2024-03-02T03:29:55;8.77;;;6.93;;
505;SDS011;551;48.524;9.056;2024-03-02T03:32:21;14.60;;;8.37;;
505;SDS011;551;48.524;9.056;2024-03-02T03:34:47;12.10;;;7.70;;
505;SDS011;551;48.524;9.056;2024-03-02T03:37:13;11.20;;;7.50;;
505;SDS011;551;48.524;9.056;2024-03-02T03:39:39;12.93;;;7.77;;
505;SDS011;551;48.524;9.056;2024-03-02T03:42:04;12.83;;;7.97;;
505;SDS011;551;48.524;9.056;2024-03-02T03:44:30;12.67;;;7.20;;
505;SDS011;551;48.524;9.056;2024-03-02T03:46:56;8.50;;;6.70;;
505;SDS011;551;48.524;9.056;2024-03-02T03:49:21;6.40;;;5.33;;
505;SDS011;551;48.524;9.056;2024-03-02T03:51:47;11.57;;;7.13;;
505;SDS011;551;48.524;9.056;2024-03-02T03:54:13;9.30;;;5.57;;
505;SDS011;551;48.524;9.056;2024-03-02T03:56:38;5.70;;;5.03;;
505;SDS011;551;48.524;9.056;2024-03-02T03:59:03;10.17;;;8.13;;
505;SDS011;551;48.524;9.056;2024-03-02T04:01:29;13.80;;;7.87;;
505;SDS011;551;48.524;9.056;2024-03-02T04:03:56;13.77;;;7.73;;
505;SDS011;551;48.524;9.056;2024-03-02T04:06:22;15.17;;;7.67;;
505;SDS011;551;48.524;9.056;2024-03-02T04:08:48;17.73;;;8.80;;
505;SDS011;551;48.524;9.056;2024-03-02T04:11:13;16.97;;;8.23;;
505;SDS011;551;48.524;9.056;2024-03-02T04:13:39;11.00;;;7.37;;
505;SDS011;551;48.524;9.056;2024-03-02T04:16:04;13.70;;;7.47;;
505;SDS011;551;48.524;9.056;2024-03-02T04:18:30;14.13;;;9.20;;
505;SDS011;551;48.524;9.056;2024-03-02T04:20:57;12.50;;;8.60;;
505;SDS011;551;48.524;9.056;2024-03-02T04:23:24;14.23;;;8.17;;
505;SDS011;551;48.524;9.056;2024-03-02T04:25:50;13.23;;;8.37;;
505;SDS011;551;48.524;9.056;2024-03-02T04:28:15;10.70;;;8.10;;
505;SDS011;551;48.524;9.056;2024-03-02T04:30:42;11.50;;;7.93;;
505;SDS011;551;48.524;9.056;2024-03-02T04:33:07;11.93;;;7.60;;
505;SDS011;551;48.524;9.056;2024-03-02T04:35:35;11.83;;;7.97;;
505;SDS011;551;48.524;9.056;2024-03-02T04:38:03;10.00;;;7.03;;
505;SDS011;551;48.524;9.056;2024-03-02T04:40:29;11.63;;;7.60;;
505;SDS011;551;48.524;9.056;2024-03-02T04:42:54;12.80;;;7.80;;
505;SDS011;551;48.524;9.056;2024-03-02T04:45:20;13.07;;;7.40;;
505;SDS011;551;48.524;9.056;2024-03-02T04:47:45;14.97;;;8.20;;
505;SDS011;551;48.524;9.056;2024-03-02T04:50:11;13.10;;;7.80;;
505;SDS011;551;48.524;9.056;2024-03-02T04:52:37;15.07;;;8.67;;
505;SDS011;551;48.524;9.056;2024-03-02T04:55:02;12.43;;;7.70;;
505;SDS011;551;48.524;9.056;2024-03-02T04:57:46;17.63;;;10.07;;
505;SDS011;551;48.524;9.056;2024-03-02T05:00:12;13.77;;;9.00;;
505;SDS011;551;48.524;9.056;2024-03-02T05:02:38;30.77;;;9.57;;
505;SDS011;551;48.524;9.056;2024-03-02T05:05:04;31.73;;;9.83;;
505;SDS011;551;48.524;9.056;2024-03-02T05:07:29;29.37;;;10.13;;
505;SDS011;551;48.524;9.056;2024-03-02T05:09:55;49.23;;;10.73;;
505;SDS011;551;48.524;9.056;2024-03-02T05:12:21;38.50;;;10.40;;
505;SDS011;551;48.524;9.056;2024-03-02T05:15:05;15.37;;;8.43;;
505;SDS011;551;48.524;9.056;2024-03-02T05:17:32;18.23;;;8.60;;
505;SDS011;551;48.524;9.056;2024-03-02T05:19:58;23.77;;;10.33;;
505;SDS011;551;48.524;9.056;2024-03-02T05:22:23;13.50;;;7.90;;
505;SDS011;551;48.524;9.056;2024-03-02T05:24:49;20.27;;;10.50;;
505;SDS011;551;48.524;9.056;2024-03-02T05:27:14;14.67;;;8.10;;
505;SDS011;551;48.524;9.056;2024-03-02T05:29:40;29.90;;;10.20;;
505;SDS011;551;48.524;9.056;2024-03-02T05:32:05;33.73;;;9.80;;
505;SDS011;551;48.524;9.056;2024-03-02T05:34:31;16.60;;;9.10;;
505;SDS011;551;48.524;9.056;2024-03-02T05:36:57;20.63;;;9.87;;
505;SDS011;551;48.524;9.056;2024-03-02T05:39:23;13.90;;;9.47;;
505;SDS011;551;48.524;9.056;2024-03-02T05:41:48;22.20;;;9.87;;
505;SDS011;551;48.524;9.056;2024-03-02T05:44:14;23.60;;;9.07;;
505;SDS011;551;48.524;9.056;2024-03-02T05:46:40;42.43;;;9.77;;
505;SDS011;551;48.524;9.056;2024-03-02T05:49:06;33.83;;;8.70;;
505;SDS011;551;48.524;9.056;2024-03-02T05:51:33;30.53;;;9.00;;
505;SDS011;551;48.524;9.056;2024-03-02T05:53:58;33.50;;;7.83;;
505;SDS011;551;48.524;9.056;2024-03-02T05:56:23;26.03;;;8.57;;
505;SDS011;551;48.524;9.056;2024-03-02T05:58:49;10.97;;;7.03;;
505;SDS011;551;48.524;9.056;2024-03-02T06:01:34;26.10;;;6.40;;
505;SDS011;551;48.524;9.056;2024-03-02T06:03:59;9.43;;;7.00;;
505;SDS011;551;48.524;9.056;2024-03-02T06:06:25;49.90;;;9.50;;
505;SDS011;551;48.524;9.056;2024-03-02T06:08:51;19.20;;;6.70;;
505;SDS011;551;48.524;9.056;2024-03-02T06:11:17;15.97;;;8.40;;
505;SDS011;551;48.524;9.056;2024-03-02T06:13:44;17.77;;;8.20;;
505;SDS011;551;48.524;9.056;2024-03-02T06:16:09;12.57;;;8.10;;
505;SDS011;551;48.524;9.056;2024-03-02T06:18:35;35.17;;;8.33;;
505;SDS011;551;48.524;9.056;2024-03-02T06:21:00;12.67;;;7.70;;
505;SDS011;551;48.524;9.056;2024-03-02T06:23:26;24.50;;;9.47;;
505;SDS011;551;48.524;9.056;2024-03-02T06:25:52;21.43;;;8.67;;
505;SDS011;551;48.524;9.056;2024-03-02T06:28:17;59.17;;;11.27;;
505;SDS011;551;48.524;9.056;2024-03-02T06:30:43;13.40;;;9.13;;
505;SDS011;551;48.524;9.056;2024-03-02T06:33:09;20.73;;;9.20;;
505;SDS011;551;48.524;9.056;2024-03-02T06:35:34;27.50;;;9.43;;
505;SDS011;551;48.524;9.056;2024-03-02T06:38:00;31.73;;;9.37;;
505;SDS011;551;48.524;9.056;2024-03-02T06:40:26;51.27;;;10.37;;
505;SDS011;551;48.524;9.056;2024-03-02T06:42:51;33.37;;;10.23;;
505;SDS011;551;48.524;9.056;2024-03-02T06:45:17;66.57;;;12.43;;
505;SDS011;551;48.524;9.056;2024-03-02T06:47:42;50.63;;;11.43;;
505;SDS011;551;48.524;9.056;2024-03-02T06:50:08;37.80;;;9.03;;
505;SDS011;551;48.524;9.056;2024-03-02T06:52:34;33.10;;;9.43;;
505;SDS011;551;48.524;9.056;2024-03-02T06:55:00;25.77;;;11.57;;
505;SDS011;551;48.524;9.056;2024-03-02T06:57:26;17.93;;;8.90;;
505;SDS011;551;48.524;9.056;2024-03-02T06:59:51;17.00;;;9.97;;
505;SDS011;551;48.524;9.056;2024-03-02T07:02:19;14.00;;;8.57;;
505;SDS011;551;48.524;9.056;2024-03-02T07:04:46;16.30;;;8.40;;
505;SDS011;551;48.524;9.056;2024-03-02T07:07:11;11.47;;;8.50;;
505;SDS011;551;48.524;9.056;2024-03-02T07:09:37;33.57;;;9.53;;
505;SDS011;551;48.524;9.056;2024-03-02T07:12:03;31.00;;;9.27;;
505;SDS011;551;48.524;9.056;2024-03-02T07:14:29;13.03;;;8.50;;
505;SDS011;551;48.524;9.056;2024-03-02T07:17:13;17.20;;;8.07;;
505;SDS011;551;48.524;9.056;2024-03-02T07:19:39;18.60;;;9.27;;
505;SDS011;551;48.524;9.056;2024-03-02T07:22:07;21.07;;;9.17;;
505;SDS011;551;48.524;9.056;2024-03-02T07:24:38;19.40;;;8.57;;
505;SDS011;551;48.524;9.056;2024-03-02T07:27:08;10.97;;;7.10;;
505;SDS011;551;48.524;9.056;2024-03-02T07:29:34;11.23;;;7.80;;
505;SDS011;551;48.524;9.056;2024-03-02T07:32:00;17.03;;;8.67;;
505;SDS011;551;48.524;9.056;2024-03-02T07:34:26;16.83;;;8.50;;
505;SDS011;551;48.524;9.056;2024-03-02T07:36:51;13.93;;;7.50;;
505;SDS011;551;48.524;9.056;2024-03-02T07:39:17;11.00;;;7.40;;
505;SDS011;551;48.524;9.056;2024-03-02T07:41:42;13.27;;;7.90;;
505;SDS011;551;48.524;9.056;2024-03-02T07:44:08;11.13;;;7.37;;
505;SDS011;551;48.524;9.056;2024-03-02T07:46:34;14.20;;;9.47;;
505;SDS011;551;48.524;9.056;2024-03-02T07:49:00;11.90;;;7.70;;
505;SDS011;551;48.524;9.056;2024-03-02T07:51:25;16.23;;;7.40;;
505;SDS011;551;48.524;9.056;2024-03-02T07:53:51;10.80;;;8.77;;
505;SDS011;551;48.524;9.056;2024-03-02T07:56:16;15.43;;;8.73;;
505;SDS011;551;48.524;9.056;2024-03-02T07:58:47;12.87;;;7.90;;
505;SDS011;551;48.524;9.056;2024-03-02T08:01:14;10.27;;;8.00;;
505;SDS011;551;48.524;9.056;2024-03-02T08:03:39;14.23;;;7.87;;
505;SDS011;551;48.524;9.056;2024-03-02T08:06:05;11.10;;;7.97;;
505;SDS011;551;48.524;9.056;2024-03-02T08:08:31;11.00;;;7.57;;
505;SDS011;551;48.524;9.056;2024-03-02T08:10:56;11.00;;;7.77;;
505;SDS011;551;48.524;9.056;2024-03-02T08:13:22;11.83;;;7.83;;
505;SDS011;551;48.524;9.056;2024-03-02T08:15:47;13.07;;;7.10;;
505;SDS011;551;48.524;9.056;2024-03-02T08:18:13;17.00;;;10.30;;
505;SDS011;551;48.524;9.056;2024-03-02T08:20:39;13.97;;;9.60;;
505;SDS011;551;48.524;9.056;2024-03-02T08:23:05;17.23;;;9.27;;
505;SDS011;551;48.524;9.056;2024-03-02T08:25:31;13.70;;;8.37;;
505;SDS011;551;48.524;9.056;2024-03-02T08:27:57;11.17;;;8.83;;
505;SDS011;551;48.524;9.056;2024-03-02T08:30:23;12.70;;;7.80;;
505;SDS011;551;48.524;9.056;2024-03-02T08:32:48;7.93;;;6.57;;
505;SDS011;551;48.524;9.056;2024-03-02T08:35:14;7.97;;;7.17;;
505;SDS011;551;48.524;9.056;2024-03-02T08:37:40;9.20;;;7.50;;
505;SDS011;551;48.524;9.056;2024-03-02T08:40:07;12.97;;;8.33;;
505;SDS011;551;48.524;9.056;2024-03-02T08:42:33;12.07;;;7.93;;
505;SDS011;551;48.524;9.056;2024-03-02T08:44:58;12.20;;;8.10;;
505;SDS011;551;48.524;9.056;2024-03-02T08:47:26;9.13;;;7.87;;
505;SDS011;551;48.524;9.056;2024-03-02T08:49:52;10.67;;;7.10;;
505;SDS011;551;48.524;9.056;2024-03-02T08:52:18;8.47;;;6.67;;
505;SDS011;551;48.524;9.056;2024-03-02T08:54:43;12.07;;;7.27;;
505;SDS011;551;48.524;9.056;2024-03-02T08:57:09;6.37;;;5.33;;
505;SDS011;551;48.524;9.056;2024-03-02T08:59:34;7.93;;;6.33;;
505;SDS011;551;48.524;9.056;2024-03-02T09:02:00;6.70;;;5.67;;
505;SDS011;551;48.524;9.056;2024-03-02T09:04:26;8.40;;;7.27;;
505;SDS011;551;48.524;9.056;2024-03-02T09:06:52;8.13;;;6.70;;
505;SDS011;551;48.524;9.056;2024-03-02T09:09:18;13.23;;;9.70;;
505;SDS011;551;48.524;9.056;2024-03-02T09:11:43;19.97;;;15.50;;
505;SDS011;551;48.524;9.056;2024-03-02T09:14:10;17.00;;;14.10;;
505;SDS011;551;48.524;9.056;2024-03-02T09:16:36;12.80;;;10.80;;
505;SDS011;551;48.524;9.056;2024-03-02T09:19:01;15.07;;;10.13;;
505;SDS011;551;48.524;9.056;2024-03-02T09:21:27;10.07;;;8.20;;
505;SDS011;551;48.524;9.056;2024-03-02T09:23:54;8.97;;;8.17;;
505;SDS011;551;48.524;9.056;2024-03-02T09:26:20;9.37;;;7.93;;
505;SDS011;551;48.524;9.056;2024-03-02T09:28:46;8.73;;;7.83;;
505;SDS011;551;48.524;9.056;2024-03-02T09:31:11;10.60;;;8.77;;
505;SDS011;551;48.524;9.056;2024-03-02T09:33:37;8.57;;;7.67;;
505;SDS011;551;48.524;9.056;2024-03-02T09:36:04;11.10;;;7.47;;
505;SDS011;551;48.524;9.056;2024-03-02T09:38:31;9.70;;;8.30;;
505;SDS011;551;48.524;9.056;2024-03-02T09:40:59;7.63;;;6.93;;
505;SDS011;551;48.524;9.056;2024-03-02T09:43:25;8.20;;;7.40;;
505;SDS011;551;48.524;9.056;2024-03-02T09:45:51;7.70;;;6.93;;
505;SDS011;551;48.524;9.056;2024-03-02T09:48:18;8.33;;;7.50;;
505;SDS011;551;48.524;9.056;2024-03-02T09:50:45;11.20;;;8.73;;
505;SDS011;551;48.524;9.056;2024-03-02T09:53:11;10.63;;;7.97;;
505;SDS011;551;48.524;9.056;2024-03-02T09:55:38;8.23;;;7.00;;
505;SDS011;551;48.524;9.056;2024-03-02T09:58:08;9.43;;;6.77;;
505;SDS011;551;48.524;9.056;2024-03-02T10:00:34;7.10;;;6.40;;
505;SDS011;551;48.524;9.056;2024-03-02T10:02:59;5.73;;;5.23;;
505;SDS011;551;48.524;9.056;2024-03-02T10:05:26;6.10;;;5.53;;
505;SDS011;551;48.524;9.056;2024-03-02T10:08:03;5.90;;;5.30;;
505;SDS011;551;48.524;9.056;2024-03-02T10:10:39;8.00;;;5.30;;
505;SDS011;551;48.524;9.056;2024-03-02T10:13:06;6.30;;;5.70;;
505;SDS011;551;48.524;9.056;2024-03-02T10:15:32;7.70;;;5.50;;
505;SDS011;551;48.524;9.056;2024-03-02T10:17:58;5.57;;;5.07;;
505;SDS011;551;48.524;9.056;2024-03-02T10:20:24;7.30;;;5.90;;
505;SDS011;551;48.524;9.056;2024-03-02T10:22:51;5.33;;;4.90;;
505;SDS011;551;48.524;9.056;2024-03-02T10:25:29;7.43;;;5.30;;
505;SDS011;551;48.524;9.056;2024-03-02T10:27:58;5.80;;;5.20;;
505;SDS011;551;48.524;9.056;2024-03-02T10:30:24;5.37;;;4.87;;
505;SDS011;551;48.524;9.056;2024-03-02T10:32:52;4.97;;;4.47;;
505;SDS011;551;48.524;9.056;2024-03-02T10:35:19;5.10;;;4.60;;
505;SDS011;551;48.524;9.056;2024-03-02T10:37:46;5.30;;;4.90;;
505;SDS011;551;48.524;9.056;2024-03-02T10:40:13;5.80;;;4.80;;
505;SDS011;551;48.524;9.056;2024-03-02T10:42:39;6.13;;;5.37;;
505;SDS011;551;48.524;9.056;2024-03-02T10:45:06;6.13;;;5.23;;
505;SDS011;551;48.524;9.056;2024-03-02T10:47:37;4.90;;;4.50;;
505;SDS011;551;48.524;9.056;2024-03-02T10:50:04;4.77;;;3.87;;
505;SDS011;551;48.524;9.056;2024-03-02T10:52:39;5.67;;;5.17;;
505;SDS011;551;48.524;9.056;2024-03-02T10:55:05;5.50;;;5.00;;
505;SDS011;551;48.524;9.056;2024-03-02T11:00:06;4.87;;;4.40;;
505;SDS011;551;48.524;9.056;2024-03-02T11:02:39;5.07;;;4.13;;
505;SDS011;551;48.524;9.056;2024-03-02T11:05:12;4.50;;;4.10;;
505;SDS011;551;48.524;9.056;2024-03-02T11:07:45;5.20;;;4.50;;
505;SDS011;551;48.524;9.056;2024-03-02T11:10:12;4.07;;;3.77;;
505;SDS011;551;48.524;9.056;2024-03-02T11:12:38;4.07;;;3.77;;
505;SDS011;551;48.524;9.056;2024-03-02T11:15:10;4.07;;;3.67;;
505;SDS011;551;48.524;9.056;2024-03-02T11:17:37;5.27;;;4.03;;
505;SDS011;551;48.524;9.056;2024-03-02T11:20:05;3.93;;;3.63;;
505;SDS011;551;48.524;9.056;2024-03-02T11:22:33;5.20;;;3.80;;
505;SDS011;551;48.524;9.056;2024-03-02T11:25:00;4.00;;;3.70;;
505;SDS011;551;48.524;9.056;2024-03-02T11:30:14;4.80;;;3.17;;
505;SDS011;551;48.524;9.056;2024-03-02T11:32:58;3.20;;;2.87;;
505;SDS011;551;48.524;9.056;2024-03-02T11:35:27;3.03;;;2.73;;
505;SDS011;551;48.524;9.056;2024-03-02T11:37:54;3.20;;;2.93;;
505;SDS011;551;48.524;9.056;2024-03-02T11:40:23;3.00;;;2.40;;
505;SDS011;551;48.524;9.056;2024-03-02T11:42:50;2.93;;;2.60;;
505;SDS011;551;48.524;9.056;2024-03-02T11:45:16;2.43;;;2.23;;
505;SDS011;551;48.524;9.056;2024-03-02T11:47:46;3.83;;;3.10;;
505;SDS011;551;48.524;9.056;2024-03-02T11:50:15;2.53;;;2.33;;
505;SDS011;551;48.524;9.056;2024-03-02T11:52:40;2.63;;;2.43;;
505;SDS011;551;48.524;9.056;2024-03-02T11:55:07;2.83;;;2.63;;
505;SDS011;551;48.524;9.056;2024-03-02T11:57:34;2.63;;;2.43;;
505;SDS011;551;48.524;9.056;2024-03-02T12:00:01;2.50;;;2.30;;
505;SDS011;551;48.524;9.056;2024-03-02T12:02:28;2.80;;;2.50;;
505;SDS011;551;48.524;9.056;2024-03-02T12:04:54;5.40;;;2.60;;
505;SDS011;551;48.524;9.056;2024-03-02T12:07:22;2.77;;;2.33;;
505;SDS011;551;48.524;9.056;2024-03-02T12:10:09;9.30;;;2.70;;
505;SDS011;551;48.524;9.056;2024-03-02T12:12:34;4.17;;;1.63;;
505;SDS011;551;48.524;9.056;2024-03-02T12:14:59;1.97;;;1.87;;
505;SDS011;551;48.524;9.056;2024-03-02T12:17:25;1.70;;;1.60;;
505;SDS011;551;48.524;9.056;2024-03-02T12:19:51;2.83;;;2.50;;
505;SDS011;551;48.524;9.056;2024-03-02T12:22:17;2.00;;;1.90;;
505;SDS011;551;48.524;9.056;2024-03-02T12:24:43;2.10;;;1.90;;
505;SDS011;551;48.524;9.056;2024-03-02T12:27:12;2.90;;;1.93;;
505;SDS011;551;48.524;9.056;2024-03-02T12:29:41;3.70;;;1.70;;
505;SDS011;551;48.524;9.056;2024-03-02T12:32:08;1.80;;;1.70;;
505;SDS011;551;48.524;9.056;2024-03-02T12:34:33;3.50;;;2.30;;
505;SDS011;551;48.524;9.056;2024-03-02T12:36:59;2.87;;;1.83;;
505;SDS011;551;48.524;9.056;2024-03-02T12:39:25;2.03;;;1.93;;
505;SDS011;551;48.524;9.056;2024-03-02T12:41:52;1.90;;;1.80;;
505;SDS011;551;48.524;9.056;2024-03-02T12:44:18;1.80;;;1.70;;
505;SDS011;551;48.524;9.056;2024-03-02T12:46:45;1.80;;;1.70;;
505;SDS011;551;48.524;9.056;2024-03-02T12:49:13;2.23;;;2.03;;
505;SDS011;551;48.524;9.056;2024-03-02T12:51:41;2.00;;;1.90;;
505;SDS011;551;48.524;9.056;2024-03-02T12:54:07;2.50;;;1.90;;
505;SDS011;551;48.524;9.056;2024-03-02T12:56:34;1.97;;;1.87;;
505;SDS011;551;48.524;9.056;2024-03-02T12:59:00;1.80;;;1.70;;
505;SDS011;551;48.524;9.056;2024-03-02T13:01:26;1.83;;;1.73;;
505;SDS011;551;48.524;9.056;2024-03-02T13:03:52;2.10;;;2.00;;
505;SDS011;551;48.524;9.056;2024-03-02T13:06:20;1.70;;;1.60;;
505;SDS011;551;48.524;9.056;2024-03-02T13:08:46;2.50;;;2.10;;
505;SDS011;551;48.524;9.056;2024-03-02T13:11:12;6.07;;;2.27;;
505;SDS011;551;48.524;9.056;2024-03-02T13:13:38;2.87;;;2.13;;
505;SDS011;551;48.524;9.056;2024-03-02T13:16:11;3.20;;;2.20;;
505;SDS011;551;48.524;9.056;2024-03-02T13:18:41;2.70;;;2.27;;
505;SDS011;551;48.524;9.056;2024-03-02T13:21:07;2.17;;;1.97;;
505;SDS011;551;48.524;9.056;2024-03-02T13:23:33;2.20;;;2.00;;
505;SDS011;551;48.524;9.056;2024-03-02T13:25:59;2.63;;;2.07;;
505;SDS011;551;48.524;9.056;2024-03-02T13:28:25;4.73;;;2.40;;
505;SDS011;551;48.524;9.056;2024-03-02T13:30:51;2.83;;;1.97;;
505;SDS011;551;48.524;9.056;2024-03-02T13:33:16;2.57;;;2.23;;
505;SDS011;551;48.524;9.056;2024-03-02T13:35:48;2.27;;;2.03;;
505;SDS011;551;48.524;9.056;2024-03-02T13:38:15;2.40;;;2.20;;
505;SDS011;551;48.524;9.056;2024-03-02T13:40:41;2.00;;;1.80;;
505;SDS011;551;48.524;9.056;2024-03-02T13:43:07;2.60;;;1.90;;
505;SDS011;551;48.524;9.056;2024-03-02T13:45:32;2.10;;;1.87;;
505;SDS011;551;48.524;9.056;2024-03-02T13:47:58;2.00;;;1.90;;
505;SDS011;551;48.524;9.056;2024-03-02T13:50:25;1.90;;;1.80;;
505;SDS011;551;48.524;9.056;2024-03-02T13:52:50;3.53;;;2.00;;
505;SDS011;551;48.524;9.056;2024-03-02T13:55:16;1.80;;;1.70;;
505;SDS011;551;48.524;9.056;2024-03-02T13:57:42;1.77;;;1.60;;
505;SDS011;551;48.524;9.056;2024-03-02T14:00:07;1.77;;;1.63;;
505;SDS011;551;48.524;9.056;2024-03-02T14:02:35;1.73;;;1.63;;
505;SDS011;551;48.524;9.056;2024-03-02T14:05:01;1.87;;;1.77;;
505;SDS011;551;48.524;9.056;2024-03-02T14:07:27;2.50;;;2.30;;
505;SDS011;551;48.524;9.056;2024-03-02T14:09:53;2.07;;;1.87;;
505;SDS011;551;48.524;9.056;2024-03-02T14:12:18;1.80;;;1.67;;
505;SDS011;551;48.524;9.056;2024-03-02T14:14:44;1.93;;;1.83;;
505;SDS011;551;48.524;9.056;2024-03-02T14:17:09;1.77;;;1.67;;
505;SDS011;551;48.524;9.056;2024-03-02T14:19:39;3.40;;;3.20;;
505;SDS011;551;48.524;9.056;2024-03-02T14:22:08;3.43;;;3.23;;
505;SDS011;551;48.524;9.056;2024-03-02T14:24:34;2.27;;;2.17;;
505;SDS011;551;48.524;9.056;2024-03-02T14:26:59;2.53;;;2.33;;
505;SDS011;551;48.524;9.056;2024-03-02T14:29:28;3.63;;;2.60;;
505;SDS011;551;48.524;9.056;2024-03-02T14:31:54;2.57;;;2.47;;
505;SDS011;551;48.524;9.056;2024-03-02T14:34:19;2.90;;;2.70;;
505;SDS011;551;48.524;9.056;2024-03-02T14:36:45;3.50;;;2.50;;
505;SDS011;551;48.524;9.056;2024-03-02T14:39:10;2.60;;;2.50;;
505;SDS011;551;48.524;9.056;2024-03-02T14:41:36;2.07;;;1.97;;
505;SDS011;551;48.524;9.056;2024-03-02T14:44:02;2.03;;;1.93;;
505;SDS011;551;48.524;9.056;2024-03-02T14:46:28;2.20;;;2.10;;
505;SDS011;551;48.524;9.056;2024-03-02T14:48:54;2.10;;;2.00;;
505;SDS011;551;48.524;9.056;2024-03-02T14:51:19;2.63;;;2.50;;
505;SDS011;551;48.524;9.056;2024-03-02T14:53:45;2.50;;;2.40;;
505;SDS011;551;48.524;9.056;2024-03-02T14:56:11;2.60;;;2.50;;
505;SDS011;551;48.524;9.056;2024-03-02T14:58:38;2.37;;;2.23;;
505;SDS011;551;48.524;9.056;2024-03-02T15:01:03;3.37;;;2.37;;
505;SDS011;551;48.524;9.056;2024-03-02T15:03:30;2.80;;;2.60;;
505;SDS011;551;48.524;9.056;2024-03-02T15:05:56;2.33;;;2.23;;
505;SDS011;551;48.524;9.056;2024-03-02T15:08:22;1.97;;;1.87;;
505;SDS011;551;48.524;9.056;2024-03-02T15:10:47;1.40;;;1.30;;
505;SDS011;551;48.524;9.056;2024-03-02T15:13:13;1.93;;;1.57;;
505;SDS011;551;48.524;9.056;2024-03-02T15:15:38;1.20;;;1.10;;
505;SDS011;551;48.524;9.056;2024-03-02T15:18:04;1.50;;;1.30;;
505;SDS011;551;48.524;9.056;2024-03-02T15:20:30;1.40;;;1.30;;
505;SDS011;551;48.524;9.056;2024-03-02T15:22:55;1.30;;;1.20;;
505;SDS011;551;48.524;9.056;2024-03-02T15:25:21;2.53;;;1.57;;
505;SDS011;551;48.524;9.056;2024-03-02T15:27:46;1.90;;;1.20;;
505;SDS011;551;48.524;9.056;2024-03-02T15:30:12;1.50;;;1.40;;
505;SDS011;551;48.524;9.056;2024-03-02T15:32:37;1.57;;;1.30;;
505;SDS011;551;48.524;9.056;2024-03-02T15:35:04;7.87;;;1.70;;
505;SDS011;551;48.524;9.056;2024-03-02T15:37:30;3.23;;;1.60;;
505;SDS011;551;48.524;9.056;2024-03-02T15:39:56;2.60;;;1.53;;